sensor_id;sensor_type;location;lat;lon;timestamp;P1;durP1;ratioP1;P2;durP2;ratioP2
49392;SDS011;35268;42.642;23.308;2022-10-31T00:01:01;10.10;;;2.53;;
49392;SDS011;35268;42.642;23.308;2022-10-31T00:03:27;6.95;;;2.40;;
49392;SDS011;35268;42.642;23.308;2022-10-31T00:05:52;5.93;;;2.25;;
49392;SDS011;35268;42.642;23.308;2022-10-31T00:08:18;5.80;;;2.42;;
49392;SDS011;35268;42.642;23.308;2022-10-31T00:10:44;8.32;;;2.47;;
49392;SDS011;35268;42.642;23.308;2022-10-31T00:13:10;7.53;;;2.47;;
49392;SDS011;35268;42.642;23.308;2022-10-31T00:15:37;6.45;;;2.40;;
49392;SDS011;35268;42.642;23.308;2022-10-31T00:18:03;6.07;;;2.50;;
49392;SDS011;35268;42.642;23.308;2022-10-31T00:20:30;6.47;;;2.65;;
49392;SDS011;35268;42.642;23.308;2022-10-31T00:22:58;10.30;;;2.88;;
49392;SDS011;35268;42.642;23.308;2022-10-31T00:25:28;9.35;;;2.45;;
49392;SDS011;35268;42.642;23.308;2022-10-31T00:27:54;7.82;;;2.50;;
49392;SDS011;35268;42.642;23.308;2022-10-31T00:30:19;5.57;;;3.38;;
49392;SDS011;35268;42.642;23.308;2022-10-31T00:32:45;8.90;;;3.30;;
49392;SDS011;35268;42.642;23.308;2022-10-31T00:35:10;8.60;;;2.45;;
49392;SDS011;35268;42.642;23.308;2022-10-31T00:37:36;4.15;;;2.45;;
49392;SDS011;35268;42.642;23.308;2022-10-31T00:40:01;9.27;;;2.80;;
49392;SDS011;35268;42.642;23.308;2022-10-31T00:42:27;8.25;;;2.30;;
49392;SDS011;35268;42.642;23.308;2022-10-31T00:44:52;6.53;;;2.40;;
49392;SDS011;35268;42.642;23.308;2022-10-31T00:47:18;6.07;;;2.40;;
49392;SDS011;35268;42.642;23.308;2022-10-31T00:49:43;7.72;;;2.72;;
49392;SDS011;35268;42.642;23.308;2022-10-31T00:52:09;9.27;;;2.28;;
49392;SDS011;35268;42.642;23.308;2022-10-31T00:54:34;6.65;;;2.70;;
49392;SDS011;35268;42.642;23.308;2022-10-31T00:57:00;9.57;;;2.30;;
49392;SDS011;35268;42.642;23.308;2022-10-31T00:59:25;6.97;;;2.22;;
49392;SDS011;35268;42.642;23.308;2022-10-31T01:01:51;6.38;;;2.53;;
49392;SDS011;35268;42.642;23.308;2022-10-31T01:04:16;7.78;;;2.53;;
49392;SDS011;35268;42.642;23.308;2022-10-31T01:06:42;11.25;;;2.95;;
49392;SDS011;35268;42.642;23.308;2022-10-31T01:09:07;7.13;;;2.08;;
49392;SDS011;35268;42.642;23.308;2022-10-31T01:11:33;5.60;;;2.50;;
49392;SDS011;35268;42.642;23.308;2022-10-31T01:13:58;7.03;;;2.35;;
49392;SDS011;35268;42.642;23.308;2022-10-31T01:16:24;7.78;;;2.25;;
49392;SDS011;35268;42.642;23.308;2022-10-31T01:18:51;11.68;;;2.88;;
49392;SDS011;35268;42.642;23.308;2022-10-31T01:21:18;4.57;;;2.13;;
49392;SDS011;35268;42.642;23.308;2022-10-31T01:23:45;8.55;;;2.90;;
49392;SDS011;35268;42.642;23.308;2022-10-31T01:28:45;7.63;;;2.97;;
49392;SDS011;35268;42.642;23.308;2022-10-31T01:31:29;11.88;;;3.10;;
49392;SDS011;35268;42.642;23.308;2022-10-31T01:33:57;11.00;;;3.30;;
49392;SDS011;35268;42.642;23.308;2022-10-31T01:36:24;5.80;;;2.92;;
49392;SDS011;35268;42.642;23.308;2022-10-31T01:38:53;7.35;;;2.70;;
49392;SDS011;35268;42.642;23.308;2022-10-31T01:41:21;11.13;;;2.75;;
49392;SDS011;35268;42.642;23.308;2022-10-31T01:46:30;11.45;;;2.70;;
49392;SDS011;35268;42.642;23.308;2022-10-31T01:48:59;6.07;;;3.00;;
49392;SDS011;35268;42.642;23.308;2022-10-31T01:51:28;11.80;;;3.03;;
49392;SDS011;35268;42.642;23.308;2022-10-31T01:53:59;7.65;;;3.17;;
49392;SDS011;35268;42.642;23.308;2022-10-31T01:56:29;10.10;;;3.53;;
49392;SDS011;35268;42.642;23.308;2022-10-31T01:58:56;10.52;;;2.88;;
49392;SDS011;35268;42.642;23.308;2022-10-31T02:01:25;7.45;;;3.20;;
49392;SDS011;35268;42.642;23.308;2022-10-31T02:03:50;7.55;;;2.97;;
49392;SDS011;35268;42.642;23.308;2022-10-31T02:06:19;7.28;;;3.28;;
49392;SDS011;35268;42.642;23.308;2022-10-31T02:08:51;7.50;;;2.65;;
49392;SDS011;35268;42.642;23.308;2022-10-31T02:11:17;8.05;;;3.10;;
49392;SDS011;35268;42.642;23.308;2022-10-31T02:13:42;6.40;;;3.10;;
49392;SDS011;35268;42.642;23.308;2022-10-31T02:16:08;10.75;;;3.08;;
49392;SDS011;35268;42.642;23.308;2022-10-31T02:18:34;7.65;;;3.03;;
49392;SDS011;35268;42.642;23.308;2022-10-31T02:21:06;6.28;;;2.80;;
49392;SDS011;35268;42.642;23.308;2022-10-31T02:34:34;10.35;;;2.80;;
49392;SDS011;35268;42.642;23.308;2022-10-31T02:39:44;13.15;;;3.63;;
49392;SDS011;35268;42.642;23.308;2022-10-31T02:45:21;11.23;;;3.28;;
49392;SDS011;35268;42.642;23.308;2022-10-31T02:47:51;12.43;;;3.90;;
49392;SDS011;35268;42.642;23.308;2022-10-31T02:50:28;9.20;;;3.72;;
49392;SDS011;35268;42.642;23.308;2022-10-31T02:52:58;15.32;;;4.53;;
49392;SDS011;35268;42.642;23.308;2022-10-31T02:57:53;10.50;;;3.67;;
49392;SDS011;35268;42.642;23.308;2022-10-31T03:00:21;9.20;;;3.90;;
49392;SDS011;35268;42.642;23.308;2022-10-31T03:05:40;9.50;;;3.67;;
49392;SDS011;35268;42.642;23.308;2022-10-31T03:08:34;7.88;;;3.80;;
49392;SDS011;35268;42.642;23.308;2022-10-31T03:11:20;9.27;;;3.72;;
49392;SDS011;35268;42.642;23.308;2022-10-31T03:13:57;6.93;;;3.53;;
49392;SDS011;35268;42.642;23.308;2022-10-31T03:16:50;6.82;;;3.35;;
49392;SDS011;35268;42.642;23.308;2022-10-31T03:21:52;10.68;;;5.03;;
49392;SDS011;35268;42.642;23.308;2022-10-31T03:24:22;8.93;;;3.50;;
49392;SDS011;35268;42.642;23.308;2022-10-31T03:26:53;8.00;;;3.53;;
49392;SDS011;35268;42.642;23.308;2022-10-31T03:29:23;7.95;;;3.95;;
49392;SDS011;35268;42.642;23.308;2022-10-31T03:34:24;9.85;;;3.58;;
49392;SDS011;35268;42.642;23.308;2022-10-31T03:36:51;7.53;;;3.88;;
49392;SDS011;35268;42.642;23.308;2022-10-31T03:39:20;12.30;;;4.18;;
49392;SDS011;35268;42.642;23.308;2022-10-31T03:41:50;10.00;;;3.60;;
49392;SDS011;35268;42.642;23.308;2022-10-31T03:44:38;5.53;;;3.03;;
49392;SDS011;35268;42.642;23.308;2022-10-31T03:47:07;12.13;;;3.33;;
49392;SDS011;35268;42.642;23.308;2022-10-31T03:49:33;7.65;;;3.03;;
49392;SDS011;35268;42.642;23.308;2022-10-31T03:52:07;7.25;;;3.20;;
49392;SDS011;35268;42.642;23.308;2022-10-31T03:54:37;10.52;;;3.25;;
49392;SDS011;35268;42.642;23.308;2022-10-31T03:57:11;9.98;;;4.30;;
49392;SDS011;35268;42.642;23.308;2022-10-31T03:59:47;8.15;;;3.83;;
49392;SDS011;35268;42.642;23.308;2022-10-31T04:02:26;11.57;;;4.50;;
49392;SDS011;35268;42.642;23.308;2022-10-31T04:04:55;11.88;;;4.38;;
49392;SDS011;35268;42.642;23.308;2022-10-31T04:07:22;10.02;;;3.75;;
49392;SDS011;35268;42.642;23.308;2022-10-31T04:09:52;8.68;;;4.20;;
49392;SDS011;35268;42.642;23.308;2022-10-31T04:12:18;14.07;;;5.18;;
49392;SDS011;35268;42.642;23.308;2022-10-31T04:14:46;9.50;;;4.65;;
49392;SDS011;35268;42.642;23.308;2022-10-31T04:17:14;12.52;;;4.10;;
49392;SDS011;35268;42.642;23.308;2022-10-31T04:19:42;13.48;;;4.47;;
49392;SDS011;35268;42.642;23.308;2022-10-31T04:22:08;12.25;;;4.65;;
49392;SDS011;35268;42.642;23.308;2022-10-31T04:24:33;14.38;;;4.93;;
49392;SDS011;35268;42.642;23.308;2022-10-31T04:26:59;9.38;;;4.28;;
49392;SDS011;35268;42.642;23.308;2022-10-31T04:29:24;14.93;;;4.80;;
49392;SDS011;35268;42.642;23.308;2022-10-31T04:31:50;16.73;;;5.03;;
49392;SDS011;35268;42.642;23.308;2022-10-31T04:34:15;11.20;;;4.38;;
49392;SDS011;35268;42.642;23.308;2022-10-31T04:36:40;9.82;;;4.45;;
49392;SDS011;35268;42.642;23.308;2022-10-31T04:39:06;12.82;;;4.93;;
49392;SDS011;35268;42.642;23.308;2022-10-31T04:41:31;13.02;;;5.18;;
49392;SDS011;35268;42.642;23.308;2022-10-31T04:43:57;12.60;;;4.38;;
49392;SDS011;35268;42.642;23.308;2022-10-31T04:46:22;9.20;;;4.47;;
49392;SDS011;35268;42.642;23.308;2022-10-31T04:48:48;11.02;;;4.63;;
49392;SDS011;35268;42.642;23.308;2022-10-31T04:51:13;10.07;;;4.50;;
49392;SDS011;35268;42.642;23.308;2022-10-31T04:53:39;11.15;;;4.50;;
49392;SDS011;35268;42.642;23.308;2022-10-31T04:56:04;13.93;;;5.63;;
49392;SDS011;35268;42.642;23.308;2022-10-31T04:58:30;10.65;;;4.63;;
49392;SDS011;35268;42.642;23.308;2022-10-31T05:00:56;18.35;;;5.30;;
49392;SDS011;35268;42.642;23.308;2022-10-31T05:03:21;17.05;;;5.28;;
49392;SDS011;35268;42.642;23.308;2022-10-31T05:05:47;10.27;;;4.75;;
49392;SDS011;35268;42.642;23.308;2022-10-31T05:08:13;12.23;;;4.43;;
49392;SDS011;35268;42.642;23.308;2022-10-31T05:10:39;18.80;;;5.25;;
49392;SDS011;35268;42.642;23.308;2022-10-31T05:13:05;12.52;;;4.45;;
49392;SDS011;35268;42.642;23.308;2022-10-31T05:15:31;14.25;;;4.72;;
49392;SDS011;35268;42.642;23.308;2022-10-31T05:17:57;13.30;;;5.20;;
49392;SDS011;35268;42.642;23.308;2022-10-31T05:20:26;17.50;;;4.95;;
49392;SDS011;35268;42.642;23.308;2022-10-31T05:22:54;24.15;;;5.63;;
49392;SDS011;35268;42.642;23.308;2022-10-31T05:25:21;17.38;;;4.72;;
49392;SDS011;35268;42.642;23.308;2022-10-31T05:27:50;10.50;;;4.63;;
49392;SDS011;35268;42.642;23.308;2022-10-31T05:30:17;8.20;;;4.38;;
49392;SDS011;35268;42.642;23.308;2022-10-31T05:32:46;13.57;;;4.68;;
49392;SDS011;35268;42.642;23.308;2022-10-31T05:35:17;17.25;;;5.82;;
49392;SDS011;35268;42.642;23.308;2022-10-31T05:37:44;13.32;;;5.45;;
49392;SDS011;35268;42.642;23.308;2022-10-31T05:40:10;23.45;;;7.50;;
49392;SDS011;35268;42.642;23.308;2022-10-31T05:42:40;15.10;;;6.30;;
49392;SDS011;35268;42.642;23.308;2022-10-31T05:45:11;19.25;;;7.70;;
49392;SDS011;35268;42.642;23.308;2022-10-31T05:47:38;11.57;;;6.18;;
49392;SDS011;35268;42.642;23.308;2022-10-31T05:50:04;21.30;;;6.70;;
49392;SDS011;35268;42.642;23.308;2022-10-31T05:52:31;16.45;;;6.78;;
49392;SDS011;35268;42.642;23.308;2022-10-31T05:54:57;16.80;;;6.97;;
49392;SDS011;35268;42.642;23.308;2022-10-31T05:57:22;17.52;;;7.60;;
49392;SDS011;35268;42.642;23.308;2022-10-31T05:59:48;19.92;;;6.78;;
49392;SDS011;35268;42.642;23.308;2022-10-31T06:02:13;22.75;;;6.65;;
49392;SDS011;35268;42.642;23.308;2022-10-31T06:04:39;23.02;;;7.72;;
49392;SDS011;35268;42.642;23.308;2022-10-31T06:07:04;18.77;;;7.68;;
49392;SDS011;35268;42.642;23.308;2022-10-31T06:09:30;22.40;;;7.20;;
49392;SDS011;35268;42.642;23.308;2022-10-31T06:11:55;15.88;;;6.80;;
49392;SDS011;35268;42.642;23.308;2022-10-31T06:14:20;26.10;;;8.27;;
49392;SDS011;35268;42.642;23.308;2022-10-31T06:16:46;22.38;;;8.10;;
49392;SDS011;35268;42.642;23.308;2022-10-31T06:19:14;18.17;;;8.07;;
49392;SDS011;35268;42.642;23.308;2022-10-31T06:21:39;20.17;;;8.73;;
49392;SDS011;35268;42.642;23.308;2022-10-31T06:24:04;19.58;;;7.07;;
49392;SDS011;35268;42.642;23.308;2022-10-31T06:26:30;21.05;;;8.55;;
49392;SDS011;35268;42.642;23.308;2022-10-31T06:28:55;25.02;;;9.27;;
49392;SDS011;35268;42.642;23.308;2022-10-31T06:31:21;15.95;;;8.35;;
49392;SDS011;35268;42.642;23.308;2022-10-31T06:33:46;23.90;;;9.15;;
49392;SDS011;35268;42.642;23.308;2022-10-31T06:36:12;29.90;;;10.02;;
49392;SDS011;35268;42.642;23.308;2022-10-31T06:38:37;34.53;;;10.80;;
49392;SDS011;35268;42.642;23.308;2022-10-31T06:41:03;28.05;;;10.25;;
49392;SDS011;35268;42.642;23.308;2022-10-31T06:43:30;21.98;;;9.93;;
49392;SDS011;35268;42.642;23.308;2022-10-31T06:45:55;31.05;;;10.02;;
49392;SDS011;35268;42.642;23.308;2022-10-31T06:48:21;27.30;;;8.95;;
49392;SDS011;35268;42.642;23.308;2022-10-31T06:50:47;68.93;;;14.32;;
49392;SDS011;35268;42.642;23.308;2022-10-31T06:53:12;62.97;;;11.45;;
49392;SDS011;35268;42.642;23.308;2022-10-31T06:55:39;20.08;;;9.38;;
49392;SDS011;35268;42.642;23.308;2022-10-31T06:58:05;25.20;;;11.70;;
49392;SDS011;35268;42.642;23.308;2022-10-31T07:00:31;27.05;;;10.65;;
49392;SDS011;35268;42.642;23.308;2022-10-31T07:05:23;24.90;;;11.38;;
49392;SDS011;35268;42.642;23.308;2022-10-31T07:08:09;29.20;;;10.88;;
49392;SDS011;35268;42.642;23.308;2022-10-31T07:10:37;28.38;;;10.38;;
49392;SDS011;35268;42.642;23.308;2022-10-31T07:13:04;22.77;;;10.68;;
49392;SDS011;35268;42.642;23.308;2022-10-31T07:15:35;28.08;;;11.27;;
49392;SDS011;35268;42.642;23.308;2022-10-31T07:18:03;31.25;;;9.40;;
49392;SDS011;35268;42.642;23.308;2022-10-31T07:20:29;29.77;;;9.55;;
49392;SDS011;35268;42.642;23.308;2022-10-31T07:22:56;26.83;;;9.95;;
49392;SDS011;35268;42.642;23.308;2022-10-31T07:25:21;26.30;;;10.00;;
49392;SDS011;35268;42.642;23.308;2022-10-31T07:27:47;29.02;;;10.13;;
49392;SDS011;35268;42.642;23.308;2022-10-31T07:30:13;21.45;;;9.43;;
49392;SDS011;35268;42.642;23.308;2022-10-31T07:32:43;27.70;;;11.13;;
49392;SDS011;35268;42.642;23.308;2022-10-31T07:35:14;30.05;;;10.75;;
49392;SDS011;35268;42.642;23.308;2022-10-31T07:37:44;30.77;;;11.00;;
49392;SDS011;35268;42.642;23.308;2022-10-31T07:40:10;21.48;;;10.60;;
49392;SDS011;35268;42.642;23.308;2022-10-31T07:42:36;23.20;;;11.45;;
49392;SDS011;35268;42.642;23.308;2022-10-31T07:45:02;22.88;;;11.68;;
49392;SDS011;35268;42.642;23.308;2022-10-31T07:47:29;29.63;;;11.57;;
49392;SDS011;35268;42.642;23.308;2022-10-31T07:49:54;28.60;;;11.73;;
49392;SDS011;35268;42.642;23.308;2022-10-31T07:52:19;51.75;;;11.60;;
49392;SDS011;35268;42.642;23.308;2022-10-31T07:54:45;21.80;;;11.02;;
49392;SDS011;35268;42.642;23.308;2022-10-31T07:57:10;23.80;;;10.75;;
49392;SDS011;35268;42.642;23.308;2022-10-31T07:59:36;34.63;;;11.65;;
49392;SDS011;35268;42.642;23.308;2022-10-31T08:02:01;28.95;;;10.27;;
49392;SDS011;35268;42.642;23.308;2022-10-31T08:04:27;22.88;;;11.50;;
49392;SDS011;35268;42.642;23.308;2022-10-31T08:06:52;18.95;;;10.35;;
49392;SDS011;35268;42.642;23.308;2022-10-31T08:09:17;29.30;;;13.23;;
49392;SDS011;35268;42.642;23.308;2022-10-31T08:11:43;27.58;;;11.27;;
49392;SDS011;35268;42.642;23.308;2022-10-31T08:14:08;21.80;;;10.25;;
49392;SDS011;35268;42.642;23.308;2022-10-31T08:16:33;26.50;;;12.15;;
49392;SDS011;35268;42.642;23.308;2022-10-31T08:18:59;26.02;;;10.27;;
49392;SDS011;35268;42.642;23.308;2022-10-31T08:21:24;19.48;;;9.55;;
49392;SDS011;35268;42.642;23.308;2022-10-31T08:23:50;34.45;;;11.60;;
49392;SDS011;35268;42.642;23.308;2022-10-31T08:26:15;27.38;;;9.45;;
49392;SDS011;35268;42.642;23.308;2022-10-31T08:28:40;21.08;;;9.32;;
49392;SDS011;35268;42.642;23.308;2022-10-31T08:31:06;24.42;;;9.20;;
49392;SDS011;35268;42.642;23.308;2022-10-31T08:33:31;17.02;;;9.40;;
49392;SDS011;35268;42.642;23.308;2022-10-31T08:36:00;19.13;;;9.15;;
49392;SDS011;35268;42.642;23.308;2022-10-31T08:38:25;19.40;;;8.52;;
49392;SDS011;35268;42.642;23.308;2022-10-31T08:40:51;19.50;;;10.18;;
49392;SDS011;35268;42.642;23.308;2022-10-31T08:43:17;24.80;;;11.82;;
49392;SDS011;35268;42.642;23.308;2022-10-31T08:45:43;25.10;;;10.55;;
49392;SDS011;35268;42.642;23.308;2022-10-31T08:48:11;23.80;;;10.60;;
49392;SDS011;35268;42.642;23.308;2022-10-31T08:50:38;22.80;;;11.15;;
49392;SDS011;35268;42.642;23.308;2022-10-31T08:53:05;23.35;;;11.02;;
49392;SDS011;35268;42.642;23.308;2022-10-31T08:55:35;29.02;;;9.45;;
49392;SDS011;35268;42.642;23.308;2022-10-31T08:58:02;21.60;;;9.18;;
49392;SDS011;35268;42.642;23.308;2022-10-31T09:00:30;24.70;;;9.20;;
49392;SDS011;35268;42.642;23.308;2022-10-31T09:02:56;20.10;;;9.05;;
49392;SDS011;35268;42.642;23.308;2022-10-31T09:05:23;27.25;;;10.10;;
49392;SDS011;35268;42.642;23.308;2022-10-31T09:07:48;20.90;;;8.20;;
49392;SDS011;35268;42.642;23.308;2022-10-31T09:10:14;21.77;;;8.70;;
49392;SDS011;35268;42.642;23.308;2022-10-31T09:12:39;20.50;;;8.75;;
49392;SDS011;35268;42.642;23.308;2022-10-31T09:15:06;15.95;;;7.60;;
49392;SDS011;35268;42.642;23.308;2022-10-31T09:17:32;27.33;;;8.90;;
49392;SDS011;35268;42.642;23.308;2022-10-31T09:19:57;19.25;;;8.15;;
49392;SDS011;35268;42.642;23.308;2022-10-31T09:22:23;26.52;;;7.78;;
49392;SDS011;35268;42.642;23.308;2022-10-31T09:24:48;23.48;;;8.18;;
49392;SDS011;35268;42.642;23.308;2022-10-31T09:27:13;14.00;;;7.15;;
49392;SDS011;35268;42.642;23.308;2022-10-31T09:29:39;19.95;;;6.90;;
49392;SDS011;35268;42.642;23.308;2022-10-31T09:32:04;19.92;;;8.63;;
49392;SDS011;35268;42.642;23.308;2022-10-31T09:34:30;20.02;;;7.35;;
49392;SDS011;35268;42.642;23.308;2022-10-31T09:36:55;16.92;;;5.88;;
49392;SDS011;35268;42.642;23.308;2022-10-31T09:39:20;17.20;;;6.47;;
49392;SDS011;35268;42.642;23.308;2022-10-31T09:44:31;19.23;;;6.45;;
49392;SDS011;35268;42.642;23.308;2022-10-31T09:52:28;11.60;;;5.63;;
49392;SDS011;35268;42.642;23.308;2022-10-31T09:57:42;20.90;;;5.57;;
49392;SDS011;35268;42.642;23.308;2022-10-31T10:00:15;16.10;;;5.63;;
49392;SDS011;35268;42.642;23.308;2022-10-31T10:05:59;18.10;;;5.47;;
49392;SDS011;35268;42.642;23.308;2022-10-31T10:08:32;16.48;;;4.55;;
49392;SDS011;35268;42.642;23.308;2022-10-31T10:11:08;22.17;;;5.30;;
49392;SDS011;35268;42.642;23.308;2022-10-31T10:21:59;7.43;;;3.10;;
49392;SDS011;35268;42.642;23.308;2022-10-31T10:30:50;10.52;;;3.28;;
49392;SDS011;35268;42.642;23.308;2022-10-31T10:33:40;18.33;;;2.80;;
49392;SDS011;35268;42.642;23.308;2022-10-31T10:36:33;12.25;;;2.60;;
49392;SDS011;35268;42.642;23.308;2022-10-31T10:39:11;11.55;;;2.88;;
49392;SDS011;35268;42.642;23.308;2022-10-31T10:41:43;10.25;;;3.08;;
49392;SDS011;35268;42.642;23.308;2022-10-31T10:44:33;9.27;;;2.63;;
49392;SDS011;35268;42.642;23.308;2022-10-31T10:47:20;11.73;;;2.70;;
49392;SDS011;35268;42.642;23.308;2022-10-31T10:50:18;9.40;;;2.53;;
49392;SDS011;35268;42.642;23.308;2022-10-31T10:58:06;8.80;;;2.78;;
49392;SDS011;35268;42.642;23.308;2022-10-31T11:00:34;12.15;;;3.05;;
49392;SDS011;35268;42.642;23.308;2022-10-31T11:03:03;9.10;;;2.50;;
49392;SDS011;35268;42.642;23.308;2022-10-31T11:08:26;7.25;;;2.20;;
49392;SDS011;35268;42.642;23.308;2022-10-31T11:11:01;7.93;;;3.28;;
49392;SDS011;35268;42.642;23.308;2022-10-31T11:13:30;8.38;;;2.22;;
49392;SDS011;35268;42.642;23.308;2022-10-31T11:16:04;8.85;;;2.05;;
49392;SDS011;35268;42.642;23.308;2022-10-31T11:18:45;12.60;;;2.92;;
49392;SDS011;35268;42.642;23.308;2022-10-31T11:21:23;20.67;;;4.53;;
49392;SDS011;35268;42.642;23.308;2022-10-31T11:26:51;9.52;;;2.95;;
49392;SDS011;35268;42.642;23.308;2022-10-31T11:29:28;7.57;;;2.55;;
49392;SDS011;35268;42.642;23.308;2022-10-31T11:31:53;19.55;;;3.17;;
49392;SDS011;35268;42.642;23.308;2022-10-31T11:34:32;10.73;;;2.50;;
49392;SDS011;35268;42.642;23.308;2022-10-31T11:37:14;7.22;;;2.90;;
49392;SDS011;35268;42.642;23.308;2022-10-31T11:39:50;7.78;;;2.45;;
49392;SDS011;35268;42.642;23.308;2022-10-31T11:42:24;7.75;;;3.45;;
49392;SDS011;35268;42.642;23.308;2022-10-31T11:47:20;13.55;;;2.72;;
49392;SDS011;35268;42.642;23.308;2022-10-31T11:49:53;7.05;;;3.50;;
49392;SDS011;35268;42.642;23.308;2022-10-31T11:52:22;11.93;;;2.63;;
49392;SDS011;35268;42.642;23.308;2022-10-31T11:55:34;10.57;;;3.65;;
49392;SDS011;35268;42.642;23.308;2022-10-31T11:57:55;8.82;;;3.28;;
49392;SDS011;35268;42.642;23.308;2022-10-31T12:00:22;9.05;;;2.90;;
49392;SDS011;35268;42.642;23.308;2022-10-31T12:02:48;11.38;;;3.13;;
49392;SDS011;35268;42.642;23.308;2022-10-31T12:05:24;9.98;;;3.25;;
49392;SDS011;35268;42.642;23.308;2022-10-31T12:07:56;5.70;;;2.67;;
49392;SDS011;35268;42.642;23.308;2022-10-31T12:10:23;6.57;;;2.70;;
49392;SDS011;35268;42.642;23.308;2022-10-31T12:23:17;5.57;;;2.60;;
49392;SDS011;35268;42.642;23.308;2022-10-31T12:50:50;6.28;;;2.40;;
49392;SDS011;35268;42.642;23.308;2022-10-31T12:58:38;7.70;;;2.53;;
49392;SDS011;35268;42.642;23.308;2022-10-31T13:01:10;9.35;;;2.80;;
49392;SDS011;35268;42.642;23.308;2022-10-31T13:06:48;6.75;;;2.42;;
49392;SDS011;35268;42.642;23.308;2022-10-31T13:09:19;11.20;;;2.55;;
49392;SDS011;35268;42.642;23.308;2022-10-31T13:11:55;10.10;;;3.60;;
49392;SDS011;35268;42.642;23.308;2022-10-31T13:14:27;15.73;;;2.80;;
49392;SDS011;35268;42.642;23.308;2022-10-31T13:16:58;12.93;;;2.78;;
49392;SDS011;35268;42.642;23.308;2022-10-31T13:19:27;9.82;;;2.83;;
49392;SDS011;35268;42.642;23.308;2022-10-31T13:27:29;12.48;;;2.78;;
49392;SDS011;35268;42.642;23.308;2022-10-31T13:30:04;7.78;;;2.63;;
49392;SDS011;35268;42.642;23.308;2022-10-31T13:32:41;11.32;;;3.63;;
49392;SDS011;35268;42.642;23.308;2022-10-31T13:35:14;12.88;;;3.20;;
49392;SDS011;35268;42.642;23.308;2022-10-31T13:38:02;11.15;;;2.92;;
49392;SDS011;35268;42.642;23.308;2022-10-31T13:40:49;14.70;;;3.55;;
49392;SDS011;35268;42.642;23.308;2022-10-31T13:45:53;13.65;;;3.40;;
49392;SDS011;35268;42.642;23.308;2022-10-31T13:48:40;8.20;;;3.22;;
49392;SDS011;35268;42.642;23.308;2022-10-31T13:51:08;7.30;;;3.45;;
49392;SDS011;35268;42.642;23.308;2022-10-31T13:53:43;11.75;;;3.22;;
49392;SDS011;35268;42.642;23.308;2022-10-31T13:59:46;15.30;;;4.18;;
49392;SDS011;35268;42.642;23.308;2022-10-31T14:01:49;7.93;;;2.70;;
49392;SDS011;35268;42.642;23.308;2022-10-31T14:12:07;16.70;;;4.83;;
49392;SDS011;35268;42.642;23.308;2022-10-31T14:14:43;18.35;;;5.40;;
49392;SDS011;35268;42.642;23.308;2022-10-31T14:17:17;29.45;;;10.18;;
49392;SDS011;35268;42.642;23.308;2022-10-31T14:22:43;38.58;;;10.00;;
49392;SDS011;35268;42.642;23.308;2022-10-31T14:25:25;41.03;;;13.35;;
49392;SDS011;35268;42.642;23.308;2022-10-31T14:27:50;59.28;;;17.33;;
49392;SDS011;35268;42.642;23.308;2022-10-31T14:30:19;63.92;;;16.88;;
49392;SDS011;35268;42.642;23.308;2022-10-31T14:32:54;52.42;;;14.85;;
49392;SDS011;35268;42.642;23.308;2022-10-31T14:35:24;49.70;;;14.52;;
49392;SDS011;35268;42.642;23.308;2022-10-31T14:45:57;39.90;;;10.80;;
49392;SDS011;35268;42.642;23.308;2022-10-31T14:48:45;36.92;;;13.15;;
49392;SDS011;35268;42.642;23.308;2022-10-31T14:51:35;35.45;;;13.27;;
49392;SDS011;35268;42.642;23.308;2022-10-31T14:54:04;34.85;;;10.98;;
49392;SDS011;35268;42.642;23.308;2022-10-31T14:56:32;18.35;;;8.07;;
49392;SDS011;35268;42.642;23.308;2022-10-31T14:59:00;26.40;;;7.85;;
49392;SDS011;35268;42.642;23.308;2022-10-31T15:01:30;30.33;;;9.23;;
49392;SDS011;35268;42.642;23.308;2022-10-31T15:04:04;32.90;;;7.38;;
49392;SDS011;35268;42.642;23.308;2022-10-31T15:06:47;20.02;;;6.50;;
49392;SDS011;35268;42.642;23.308;2022-10-31T15:09:23;27.48;;;6.90;;
49392;SDS011;35268;42.642;23.308;2022-10-31T15:11:50;39.03;;;6.75;;
49392;SDS011;35268;42.642;23.308;2022-10-31T15:14:27;35.00;;;9.00;;
49392;SDS011;35268;42.642;23.308;2022-10-31T15:16:57;53.58;;;22.30;;
49392;SDS011;35268;42.642;23.308;2022-10-31T15:19:27;55.05;;;22.65;;
49392;SDS011;35268;42.642;23.308;2022-10-31T15:21:56;78.28;;;33.42;;
49392;SDS011;35268;42.642;23.308;2022-10-31T15:24:30;73.85;;;32.47;;
49392;SDS011;35268;42.642;23.308;2022-10-31T15:26:59;78.80;;;31.63;;
49392;SDS011;35268;42.642;23.308;2022-10-31T15:29:25;59.90;;;30.58;;
49392;SDS011;35268;42.642;23.308;2022-10-31T15:31:52;49.28;;;25.25;;
49392;SDS011;35268;42.642;23.308;2022-10-31T15:34:25;35.53;;;20.40;;
49392;SDS011;35268;42.642;23.308;2022-10-31T15:36:57;27.52;;;13.52;;
49392;SDS011;35268;42.642;23.308;2022-10-31T15:39:23;24.90;;;10.77;;
49392;SDS011;35268;42.642;23.308;2022-10-31T15:41:52;21.92;;;7.20;;
49392;SDS011;35268;42.642;23.308;2022-10-31T15:44:24;14.23;;;5.85;;
49392;SDS011;35268;42.642;23.308;2022-10-31T15:46:55;18.65;;;5.22;;
49392;SDS011;35268;42.642;23.308;2022-10-31T15:49:28;13.90;;;5.03;;
49392;SDS011;35268;42.642;23.308;2022-10-31T15:52:06;20.45;;;5.05;;
49392;SDS011;35268;42.642;23.308;2022-10-31T15:54:46;13.27;;;4.03;;
49392;SDS011;35268;42.642;23.308;2022-10-31T15:57:14;10.00;;;3.30;;
49392;SDS011;35268;42.642;23.308;2022-10-31T15:59:41;13.80;;;3.47;;
49392;SDS011;35268;42.642;23.308;2022-10-31T16:02:14;19.73;;;3.78;;
49392;SDS011;35268;42.642;23.308;2022-10-31T16:04:49;8.00;;;2.97;;
49392;SDS011;35268;42.642;23.308;2022-10-31T16:07:17;9.07;;;3.65;;
49392;SDS011;35268;42.642;23.308;2022-10-31T16:12:15;9.80;;;3.25;;
49392;SDS011;35268;42.642;23.308;2022-10-31T16:14:41;19.90;;;3.42;;
49392;SDS011;35268;42.642;23.308;2022-10-31T16:17:10;7.55;;;3.42;;
49392;SDS011;35268;42.642;23.308;2022-10-31T16:19:47;20.85;;;4.40;;
49392;SDS011;35268;42.642;23.308;2022-10-31T16:27:34;14.70;;;3.70;;
49392;SDS011;35268;42.642;23.308;2022-10-31T16:30:26;11.93;;;3.17;;
49392;SDS011;35268;42.642;23.308;2022-10-31T16:32:53;14.02;;;3.78;;
49392;SDS011;35268;42.642;23.308;2022-10-31T16:37:59;8.70;;;3.80;;
49392;SDS011;35268;42.642;23.308;2022-10-31T16:40:25;20.50;;;4.25;;
49392;SDS011;35268;42.642;23.308;2022-10-31T16:42:51;17.52;;;5.40;;
49392;SDS011;35268;42.642;23.308;2022-10-31T16:45:21;13.73;;;4.32;;
49392;SDS011;35268;42.642;23.308;2022-10-31T16:47:48;15.63;;;4.63;;
49392;SDS011;35268;42.642;23.308;2022-10-31T16:50:15;12.93;;;3.70;;
49392;SDS011;35268;42.642;23.308;2022-10-31T16:52:43;12.48;;;3.08;;
49392;SDS011;35268;42.642;23.308;2022-10-31T16:55:11;13.02;;;4.00;;
49392;SDS011;35268;42.642;23.308;2022-10-31T16:57:38;8.77;;;3.75;;
49392;SDS011;35268;42.642;23.308;2022-10-31T17:00:05;15.23;;;4.80;;
49392;SDS011;35268;42.642;23.308;2022-10-31T17:02:31;15.25;;;5.88;;
49392;SDS011;35268;42.642;23.308;2022-10-31T17:04:57;19.67;;;7.47;;
49392;SDS011;35268;42.642;23.308;2022-10-31T17:07:23;15.65;;;7.32;;
49392;SDS011;35268;42.642;23.308;2022-10-31T17:09:48;18.90;;;6.95;;
49392;SDS011;35268;42.642;23.308;2022-10-31T17:12:15;14.70;;;7.45;;
49392;SDS011;35268;42.642;23.308;2022-10-31T17:14:45;31.45;;;8.88;;
49392;SDS011;35268;42.642;23.308;2022-10-31T17:17:13;17.67;;;7.32;;